This is the latest recevied weather packets stored in our database for station/object DB0GIS-11. If no packets are shown the sender has not sent any weather packets the latest 10 day(s).
| Time | Temp. | Humidity | Pressure | Rain* | Wind** | Luminosity | Snow |
|---|---|---|---|---|---|---|---|
| 1777156655 | 10° C | 50% | 1016.6 hPa | 0 mm | - | - | - |
| 1777153055 | 11.11° C | 45% | 1016.2 hPa | 0 mm | - | - | - |
| 1777151875 | 11.11° C | 44% | 1016.1 hPa | 0 mm | - | - | - |
| 1777150652 | 11.67° C | 43% | 1016.1 hPa | 0 mm | - | - | - |
| 1777148248 | 11.67° C | 42% | 1015.6 hPa | 0 mm | - | - | - |
| 1777147648 | 12.22° C | 41% | 1015.5 hPa | 0 mm | - | - | - |
| 1777147053 | 12.22° C | 40% | 1015.5 hPa | 0 mm | - | - | - |
| 1777145253 | 13.33° C | 39% | 1015.1 hPa | 0 mm | - | - | - |
| 1777142256 | 15° C | 37% | 1014.5 hPa | 0 mm | - | - | - |
| 1777139848 | 16.67° C | 38% | 1013.9 hPa | 0 mm | - | - | - |
| 1777137449 | 17.78° C | 41% | 1013.4 hPa | 0 mm | - | - | - |
| 1777129660 | 19.44° C | 39% | 1013.4 hPa | 0 mm | - | - | - |
| 1777128449 | 18.89° C | 37% | 1013.4 hPa | 0 mm | - | - | - |
| 1777127849 | 19.44° C | 37% | 1013.5 hPa | 0 mm | - | - | - |
| 1777123048 | 18.89° C | 41% | 1013.8 hPa | 0 mm | - | - | - |
| 1777121857 | 18.33° C | 43% | 1014 hPa | 0 mm | - | - | - |
| 1777121261 | 18.33° C | 42% | 1014.2 hPa | 0 mm | - | - | - |
| 1777118873 | 17.22° C | 46% | 1014.8 hPa | 0 mm | - | - | - |
| 1777115850 | 16.67° C | 53% | 1015.3 hPa | 0 mm | - | - | - |
| 1777115258 | 16.67° C | 53% | 1015.4 hPa | 0 mm | - | - | - |
| 1777112247 | 15.56° C | 58% | 1015.6 hPa | 0 mm | - | - | - |
| 1777111650 | 14.44° C | 60% | 1015.5 hPa | 0 mm | - | - | - |
| 1777110453 | 13.33° C | 61% | 1015.8 hPa | 0 mm | - | - | - |
| 1777108712 | 13.33° C | 60% | 1016 hPa | 0 mm | - | - | - |
| 1777108058 | 13.33° C | 62% | 1015.9 hPa | 0 mm | - | - | - |
* Rain latest hour (hover to see other rain measurements)
** Current wind speed in m/s (hover to see current wind gust speed)